Dobrodošli na spletni strani vremenske postaje Senovo. Vse informacije so informativnega značaja, saj vremenska postaja ni del državne mreže meteoroloških postaj. AKTUALNIH OBVESTIL NI.


Sneg/Led Od: 23-02-2018 00:00 Do: 23:59 Opozorilo za: Sneg/Led Stopnja: Rumena info button

Pogled proti Armezu več informacij Pogled proti Armezu


Lisca več informacij Lisca


Radar strel več informacij blitzortung!


opozorilo za sneg/led več informacij rain snow radar


Obiščite še:

Template documentation
and downloads

And another site



Weather Underground, zgodovina - Tekstovno

Dnevni povzetek za Januar 27, 2018 Enote:  Metrično    Angleško   Obe
« Predhodni Dan
Naslednji Dan »
Dnevni Tedenski Mesečni Letni Po meri
  Višja: Nižja: Povprečje:
Temperatura: -17.8 °C -18.1 °C -16.3 °C
Točka rosišča: -17.8 °C -18.8 °C -17.6 °C
Vlažnost: Humidity % 75 % 85 %
Hitrost vetra: 0 km/h 0 km/h 5.1 km/h
Sunki vetra: 0 km/h - -
Veter:- - SE
Zračni tlak: 0 hPa 34601.5 hPa -
Padavine: 0 mm    
Historical Graphs
 
 
Tabelarni podarki za Januar 27, 2018
Čas Temperatura Točka rosišča Zračni tlak Veter Hitrost vetra Sunki vetra Vlažnost Intenziteta padavin (urna)
-17.8 °C -17.8 °C 0 hPa Calm     Humidity % 0 mm
00:00 -17.1 °C -18.6 °C 34601.5 hPa NNW 1 km/h 6.9 km/h 82 % 0 mm
00:05 -17.1 °C -18.7 °C 34601.5 hPa NW 0.3 km/h 6.4 km/h 82 % 0 mm
00:10 -17.1 °C -18.6 °C 34601.5 hPa NW 0.3 km/h 6.4 km/h 83 % 0 mm
00:15 -17.2 °C -18.6 °C 34635.4 hPa Calm     83 % 0 mm
00:20 -17.2 °C -18.6 °C 34635.4 hPa Calm     83 % 0 mm
00:25 -17.2 °C -18.7 °C 34635.4 hPa NW 0.3 km/h 4.2 km/h 83 % 0 mm
00:30 -17.2 °C -18.7 °C 34635.4 hPa NW 0.5 km/h 4.2 km/h 83 % 0 mm
00:35 -17.3 °C -18.6 °C 34635.4 hPa NW 0.3 km/h 2.3 km/h 84 % 0 mm
00:40 -17.3 °C -18.6 °C 34635.4 hPa Calm     84 % 0 mm
00:45 -17.3 °C -18.6 °C 34669.3 hPa Calm     84 % 0 mm
00:50 -17.3 °C -18.6 °C 34669.3 hPa NW 0.5 km/h 6.4 km/h 84 % 0 mm
00:55 -17.3 °C -18.6 °C 34669.3 hPa NW 1 km/h 6.4 km/h 84 % 0 mm
01:00 -17.3 °C -18.5 °C 34635.4 hPa NW 0.8 km/h 6.4 km/h 85 % 0 mm
01:05 -17.2 °C -18.4 °C 34635.4 hPa Calm     85 % 0 mm
01:10 -17.2 °C -18.4 °C 34635.4 hPa Calm     85 % 0 mm
01:15 -17.2 °C -18.4 °C 34635.4 hPa Calm     85 % 0 mm
01:20 -17.1 °C -18.4 °C 34635.4 hPa Calm     85 % 0 mm
01:25 -17.1 °C -18.3 °C 34635.4 hPa Calm     85 % 0 mm
01:30 -17 °C -18.2 °C 34635.4 hPa Calm     86 % 0 mm
01:35 -17 °C -18.2 °C 34635.4 hPa Calm     86 % 0 mm
01:40 -17 °C -18.2 °C 34635.4 hPa Calm     86 % 0 mm
01:45 -16.9 °C -18.1 °C 34635.4 hPa Calm     86 % 0 mm
01:50 -16.9 °C -17.9 °C 34635.4 hPa Calm     87 % 0 mm
01:55 -16.9 °C -17.9 °C 34635.4 hPa Calm     87 % 0 mm
02:00 -16.9 °C -17.9 °C 34635.4 hPa WNW 0.5 km/h 5.1 km/h 87 % 0 mm
02:05 -16.9 °C -17.9 °C 34635.4 hPa WNW 0.5 km/h 5.1 km/h 87 % 0 mm
02:10 -16.8 °C -17.9 °C 34635.4 hPa WSW 0.8 km/h 6.4 km/h 87 % 0 mm
02:15 -16.8 °C -17.9 °C 34635.4 hPa WSW 0.8 km/h 6.4 km/h 87 % 0 mm
02:20 -16.8 °C -17.8 °C 34635.4 hPa North 0.3 km/h   88 % 0 mm
02:25 -16.8 °C -17.8 °C 34635.4 hPa Calm     88 % 0 mm
02:30 -16.7 °C -17.7 °C 34635.4 hPa Calm     87 % 0 mm
02:35 -16.6 °C -17.6 °C 34635.4 hPa ESE 0.5 km/h 7.6 km/h 88 % 0 mm
02:40 -16.4 °C -17.4 °C 34635.4 hPa South 3.1 km/h 8 km/h 88 % 0 mm
02:45 -16.4 °C -17.4 °C 34635.4 hPa SSW 3.9 km/h 8 km/h 88 % 0 mm
02:50 -16.3 °C -17.3 °C 34635.4 hPa SW 1.8 km/h 7.6 km/h 88 % 0 mm
02:55 -16.3 °C -17.3 °C 34635.4 hPa SW 1 km/h 6.9 km/h 88 % 0 mm
03:00 -16.3 °C -17.3 °C 34635.4 hPa Calm     89 % 0 mm
03:05 -16.4 °C -17.3 °C 34635.4 hPa Calm   6.9 km/h 89 % 0 mm
03:10 -16.5 °C -17.4 °C 34635.4 hPa WSW 1.6 km/h 8 km/h 89 % 0 mm
03:15 -16.6 °C -17.4 °C 34635.4 hPa West 2.6 km/h 8 km/h 89 % 0 mm
03:20 -16.6 °C -17.5 °C 34635.4 hPa NW 0.8 km/h 5.6 km/h 89 % 0 mm
03:25 -16.7 °C -17.6 °C 34635.4 hPa Calm     89 % 0 mm
03:30 -16.7 °C -17.6 °C 34635.4 hPa Calm     89 % 0 mm
03:35 -16.8 °C -17.7 °C 34635.4 hPa NW 0.3 km/h 3.4 km/h 89 % 0 mm
03:40 -16.8 °C -17.7 °C 34669.3 hPa WNW 0.5 km/h 5.1 km/h 89 % 0 mm
03:45 -16.9 °C -17.8 °C 34669.3 hPa NW 1 km/h 6.9 km/h 89 % 0 mm
03:50 -16.9 °C -17.8 °C 34669.3 hPa NNW 0.8 km/h 6.9 km/h 89 % 0 mm
03:55 -16.9 °C -17.8 °C 34635.4 hPa Calm     89 % 0 mm
04:00 -17 °C -17.9 °C 34635.4 hPa Calm     89 % 0 mm
04:05 -17 °C -17.9 °C 34635.4 hPa Calm     89 % 0 mm
04:10 -17.1 °C -17.9 °C 34601.5 hPa Calm     89 % 0 mm
04:15 -17.1 °C -17.9 °C 34601.5 hPa Calm     89 % 0 mm
04:20 -17.1 °C -18 °C 34601.5 hPa Calm     89 % 0 mm
04:25 -17.2 °C -18.1 °C 34635.4 hPa Calm     89 % 0 mm
04:30 -17.2 °C -18.1 °C 34635.4 hPa Calm     89 % 0 mm
04:35 -17.2 °C -18.1 °C 34635.4 hPa Calm     89 % 0 mm
04:40 -17.3 °C -18.2 °C 34635.4 hPa Calm     89 % 0 mm
04:45 -17.3 °C -18.2 °C 34635.4 hPa Calm     89 % 0 mm
04:50 -17.3 °C -18.2 °C 34635.4 hPa Calm     89 % 0 mm
04:55 -17.4 °C -18.3 °C 34669.3 hPa Calm     89 % 0 mm
05:00 -17.4 °C -18.3 °C 34669.3 hPa Calm     89 % 0 mm
05:05 -17.4 °C -18.3 °C 34669.3 hPa Calm     89 % 0 mm
05:10 -17.5 °C -18.4 °C 34669.3 hPa Calm     89 % 0 mm
05:15 -17.6 °C -18.4 °C 34669.3 hPa Calm     89 % 0 mm
05:20 -17.6 °C -18.4 °C 34669.3 hPa Calm     89 % 0 mm
05:25 -17.6 °C -18.4 °C 34669.3 hPa Calm     89 % 0 mm
05:30 -17.6 °C -18.4 °C 34669.3 hPa Calm     90 % 0 mm
05:35 -17.6 °C -18.4 °C 34669.3 hPa Calm     90 % 0 mm
05:41 -17.6 °C -18.4 °C 34669.3 hPa Calm     90 % 0 mm
05:46 -17.6 °C -18.4 °C 34669.3 hPa Calm     90 % 0 mm
05:51 -17.6 °C -18.4 °C 34669.3 hPa Calm     90 % 0 mm
05:56 -17.6 °C -18.4 °C 34669.3 hPa Calm     90 % 0 mm
06:01 -17.6 °C -18.4 °C 34669.3 hPa Calm     90 % 0 mm
06:06 -17.6 °C -18.4 °C 34669.3 hPa Calm     90 % 0 mm
06:11 -17.6 °C -18.4 °C 34669.3 hPa Calm     90 % 0 mm
06:16 -17.6 °C -18.4 °C 34669.3 hPa Calm     90 % 0 mm
06:21 -17.7 °C -18.4 °C 34669.3 hPa Calm     90 % 0 mm
06:26 -17.7 °C -18.4 °C 34703.1 hPa Calm     90 % 0 mm
06:31 -17.7 °C -18.5 °C 34703.1 hPa Calm     90 % 0 mm
06:36 -17.7 °C -18.5 °C 34703.1 hPa Calm     90 % 0 mm
06:41 -17.8 °C -18.6 °C 34703.1 hPa Calm     90 % 0 mm
06:46 -17.8 °C -18.6 °C 34703.1 hPa Calm     90 % 0 mm
06:51 -17.8 °C -18.6 °C 34703.1 hPa Calm     90 % 0 mm
06:56 -17.8 °C -18.7 °C 34703.1 hPa SW 0.5 km/h 6.4 km/h 90 % 0 mm
07:01 -17.9 °C -18.7 °C 34703.1 hPa SW 0.5 km/h 6.4 km/h 90 % 0 mm
07:06 -17.9 °C -18.7 °C 34703.1 hPa Calm     90 % 0 mm
07:11 -18 °C -18.8 °C 34703.1 hPa Calm     90 % 0 mm
07:16 -17.9 °C -18.7 °C 34703.1 hPa Calm     90 % 0 mm
07:21 -18 °C -18.8 °C 34703.1 hPa Calm     90 % 0 mm
07:26 -18 °C -18.8 °C 34703.1 hPa Calm     90 % 0 mm
07:31 -18.1 °C -18.8 °C 34703.1 hPa Calm     90 % 0 mm
07:36 -18 °C -18.8 °C 34703.1 hPa Calm     90 % 0 mm
07:41 -18.1 °C -18.8 °C 34703.1 hPa Calm     90 % 0 mm
07:46 -18.1 °C -18.8 °C 34703.1 hPa Calm     90 % 0 mm
07:51 -18.1 °C -18.8 °C 34703.1 hPa Calm     90 % 0 mm
07:56 -18.1 °C -18.8 °C 34740.4 hPa Calm     90 % 0 mm
08:01 -18.1 °C -18.8 °C 34740.4 hPa Calm     90 % 0 mm
08:06 -18.1 °C -18.8 °C 34740.4 hPa Calm     90 % 0 mm
08:11 -18.1 °C -18.8 °C 34740.4 hPa Calm     91 % 0 mm
08:16 -18.1 °C -18.8 °C 34740.4 hPa Calm     91 % 0 mm
08:21 -18 °C -18.7 °C 34740.4 hPa Calm     91 % 0 mm
08:26 -18 °C -18.7 °C 34740.4 hPa Calm     91 % 0 mm
08:31 -17.9 °C -18.6 °C 34740.4 hPa Calm     91 % 0 mm
08:35 -17.8 °C -18.6 °C 34740.4 hPa Calm     91 % 0 mm
08:40 -17.8 °C -18.5 °C 34774.2 hPa Calm     91 % 0 mm
08:45 -17.7 °C -18.4 °C 34774.2 hPa Calm     91 % 0 mm
08:50 -17.7 °C -18.3 °C 34774.2 hPa Calm     92 % 0 mm
08:55 -17.6 °C -18.2 °C 34774.2 hPa Calm     92 % 0 mm
09:00 -17.6 °C -18.2 °C 34774.2 hPa Calm     92 % 0 mm
09:05 -17.5 °C -18.2 °C 34774.2 hPa Calm     92 % 0 mm
09:10 -17.4 °C -18.1 °C 34774.2 hPa Calm     92 % 0 mm
09:15 -17.3 °C -17.9 °C 34774.2 hPa Calm     92 % 0 mm
09:21 -17.3 °C -17.8 °C 34774.2 hPa Calm     93 % 0 mm
09:26 -17.2 °C -17.7 °C 34774.2 hPa Calm     93 % 0 mm
09:31 -17.1 °C -17.6 °C 34774.2 hPa Calm     93 % 0 mm
09:36 -16.9 °C -17.4 °C 34774.2 hPa Calm     93 % 0 mm
09:41 -16.8 °C -17.3 °C 34740.4 hPa SW 0.5 km/h 4.2 km/h 93 % 0 mm
09:46 -16.7 °C -17.2 °C 34740.4 hPa SW 1.3 km/h 6.4 km/h 93 % 0 mm
09:51 -16.4 °C -17 °C 34740.4 hPa SSW 2.1 km/h 6.4 km/h 93 % 0 mm
09:56 -16.2 °C -16.6 °C 34774.2 hPa SE 2.3 km/h 16.9 km/h 94 % 0 mm
10:01 -15.9 °C -16.4 °C 34774.2 hPa East 4.2 km/h 16.9 km/h 94 % 0 mm
10:06 -15.7 °C -16.2 °C 34774.2 hPa ESE 6.3 km/h 16.9 km/h 94 % 0 mm
10:11 -15.5 °C -16 °C 34774.2 hPa ESE 6.8 km/h 11.1 km/h 94 % 0 mm
10:16 -15.3 °C -15.8 °C 34774.2 hPa ESE 8 km/h 14.5 km/h 94 % 0 mm
10:21 -15.2 °C -15.7 °C 34774.2 hPa ESE 8.5 km/h 14.5 km/h 94 % 0 mm
10:26 -15 °C -15.5 °C 34808.1 hPa East 9.3 km/h 16.9 km/h 94 % 0 mm
10:31 -15 °C -15.5 °C 34808.1 hPa East 10.3 km/h 18.7 km/h 94 % 0 mm
10:36 -14.9 °C -15.4 °C 34808.1 hPa ENE 11.1 km/h 20.3 km/h 94 % 0 mm
10:41 -14.8 °C -15.3 °C 34808.1 hPa ENE 11.6 km/h 20.3 km/h 94 % 0 mm
10:46 -14.8 °C -15.4 °C 34808.1 hPa ENE 10.6 km/h 15.6 km/h 93 % 0 mm
10:51 -14.8 °C -15.4 °C 34808.1 hPa ENE 9.3 km/h 15.6 km/h 93 % 0 mm
10:56 -14.7 °C -15.2 °C 34808.1 hPa ENE 9 km/h 15 km/h 93 % 0 mm
11:01 -14.7 °C -15.2 °C 34808.1 hPa East 8.9 km/h 15 km/h 93 % 0 mm
11:06 -14.6 °C -15.3 °C 34808.1 hPa East 8.5 km/h 14.5 km/h 92 % 0 mm
11:11 -14.5 °C -15.2 °C 34808.1 hPa ENE 9 km/h 18.7 km/h 92 % 0 mm
11:16 -14.4 °C -15.2 °C 34808.1 hPa ENE 11.6 km/h 18.7 km/h 91 % 0 mm
11:21 -14.4 °C -15.2 °C 34808.1 hPa ENE 12.7 km/h 16.9 km/h 91 % 0 mm
11:26 -14.2 °C -15.1 °C 34808.1 hPa ENE 12.4 km/h 19.2 km/h 90 % 0 mm
11:31 -14.2 °C -15 °C 34808.1 hPa ENE 12.9 km/h 19.2 km/h 90 % 0 mm
11:36 -14.1 °C -15.1 °C 34808.1 hPa ENE 12.7 km/h 16.9 km/h 89 % 0 mm
11:41 -14.2 °C -15.2 °C 34808.1 hPa ENE 13.7 km/h 20.9 km/h 88 % 0 mm
11:46 -14.2 °C -15.3 °C 34808.1 hPa ENE 16.9 km/h 26.7 km/h 87 % 0 mm
11:51 -14.3 °C -15.5 °C 34808.1 hPa ENE 17.4 km/h 26.7 km/h 86 % 0 mm
11:56 -14.3 °C -15.5 °C 34808.1 hPa ENE 17.5 km/h 26.7 km/h 86 % 0 mm
12:01 -14.3 °C -15.6 °C 34808.1 hPa ENE 17.4 km/h 26.7 km/h 85 % 0 mm
12:06 -14.4 °C -15.8 °C 34808.1 hPa ENE 16.9 km/h 24.8 km/h 84 % 0 mm
12:11 -14.3 °C -15.7 °C 34808.1 hPa ENE 17.4 km/h 25.4 km/h 84 % 0 mm
12:16 -14.3 °C -15.8 °C 34808.1 hPa ENE 17.4 km/h 26.7 km/h 83 % 0 mm
12:21 -14.2 °C -15.7 °C 34808.1 hPa ENE 16.3 km/h 26.7 km/h 83 % 0 mm
12:26 -14.2 °C -15.7 °C 34808.1 hPa ENE 16.3 km/h 22.5 km/h 82 % 0 mm
12:31 -14.2 °C -15.8 °C 34808.1 hPa ENE 16.1 km/h 22 km/h 82 % 0 mm
12:36 -14.2 °C -15.9 °C 34808.1 hPa East 15.3 km/h 22.5 km/h 81 % 0 mm
12:41 -14.2 °C -15.9 °C 34808.1 hPa ENE 15.3 km/h 22.5 km/h 80 % 0 mm
12:46 -14.2 °C -15.9 °C 34808.1 hPa ENE 15 km/h 25.4 km/h 80 % 0 mm
12:51 -14.2 °C -16.1 °C 34808.1 hPa ENE 15.3 km/h 25.4 km/h 79 % 0 mm
12:56 -14.2 °C -16.1 °C 34808.1 hPa ENE 16.1 km/h 23.8 km/h 79 % 0 mm
13:01 -14.2 °C -16.2 °C 34808.1 hPa ENE 17.9 km/h 24.8 km/h 78 % 0 mm
13:07 -14.2 °C -16.2 °C 34808.1 hPa ENE 17.5 km/h 24.8 km/h 78 % 0 mm
13:12 -14.2 °C -16.2 °C 34808.1 hPa ENE 15.3 km/h 22 km/h 77 % 0 mm
13:17 -14.2 °C -16.2 °C 34808.1 hPa ENE 15.6 km/h 23.8 km/h 77 % 0 mm
13:22 -14.2 °C -16.2 °C 34808.1 hPa ENE 17.4 km/h 27.2 km/h 77 % 0 mm
13:27 -14.2 °C -16.2 °C 34808.1 hPa NE 18.2 km/h 27.2 km/h 77 % 0 mm
13:32 -14.2 °C -16.3 °C 34808.1 hPa NE 17.1 km/h 28.5 km/h 76 % 0 mm
13:37 -14.2 °C -16.3 °C 34808.1 hPa NE 17.1 km/h 28.5 km/h 76 % 0 mm
13:42 -14.2 °C -16.3 °C 34808.1 hPa NE 17.4 km/h 26.2 km/h 76 % 0 mm
13:47 -14.2 °C -16.4 °C 34808.1 hPa NE 18.2 km/h 27.7 km/h 76 % 0 mm
13:52 -14.2 °C -16.4 °C 34808.1 hPa NE 18.8 km/h 27.7 km/h 76 % 0 mm
13:57 -14.2 °C -16.4 °C 34808.1 hPa NE 18.7 km/h 26.2 km/h 76 % 0 mm
14:02 -14.2 °C -16.4 °C 34808.1 hPa ENE 16.9 km/h 26.7 km/h 76 % 0 mm
14:07 -14.2 °C -16.5 °C 34808.1 hPa NE 16.3 km/h 26.7 km/h 75 % 0 mm
14:12 -14.2 °C -16.5 °C 34808.1 hPa NE 15.3 km/h 25.4 km/h 75 % 0 mm
14:17 -14.2 °C -16.5 °C 34808.1 hPa NE 15 km/h 26.7 km/h 75 % 0 mm
14:22 -14.2 °C -16.5 °C 34808.1 hPa NE 15.8 km/h 26.7 km/h 75 % 0 mm
14:27 -14.2 °C -16.4 °C 34808.1 hPa NE 13.7 km/h 19.6 km/h 75 % 0 mm
14:32 -14.2 °C -16.4 °C 34808.1 hPa ENE 14.2 km/h 26.7 km/h 75 % 0 mm
14:37 -14.2 °C -16.5 °C 34808.1 hPa NE 16.3 km/h 26.7 km/h 75 % 0 mm
14:42 -14.3 °C -16.6 °C 34808.1 hPa NE 17.5 km/h 28.5 km/h 75 % 0 mm
14:47 -14.4 °C -16.7 °C 34808.1 hPa NE 18.7 km/h 28.5 km/h 75 % 0 mm
14:52 -14.4 °C -16.7 °C 34808.1 hPa NE 17.4 km/h 27.7 km/h 75 % 0 mm
14:57 -14.4 °C -16.7 °C 34808.1 hPa NE 17.1 km/h 25.4 km/h 75 % 0 mm
15:02 -14.4 °C -16.7 °C 34808.1 hPa ENE 17.4 km/h 25.4 km/h 75 % 0 mm
15:07 -14.5 °C -16.8 °C 34808.1 hPa NE 17.9 km/h 26.2 km/h 75 % 0 mm
15:12 -14.6 °C -16.8 °C 34808.1 hPa NE 17.1 km/h 26.2 km/h 75 % 0 mm
15:17 -14.7 °C -16.9 °C 34808.1 hPa NE 15 km/h 22.5 km/h 75 % 0 mm
15:22 -14.7 °C -16.9 °C 34808.1 hPa NE 14.5 km/h 20.3 km/h 75 % 0 mm
15:27 -14.7 °C -17 °C 34841.9 hPa NE 13.5 km/h 19.6 km/h 75 % 0 mm
15:32 -14.8 °C -17.1 °C 34841.9 hPa NE 14.5 km/h 26.7 km/h 75 % 0 mm
15:37 -14.8 °C -17.1 °C 34841.9 hPa NE 15.6 km/h 26.7 km/h 75 % 0 mm
15:42 -14.9 °C -17.2 °C 34841.9 hPa NE 11.6 km/h 23.8 km/h 75 % 0 mm
15:47 -15 °C -17.3 °C 34841.9 hPa NE 10.1 km/h 18.7 km/h 75 % 0 mm
15:52 -15 °C -17.3 °C 34841.9 hPa NE 12.7 km/h 19.6 km/h 75 % 0 mm
15:57 -15.1 °C -17.3 °C 34875.8 hPa ENE 14.5 km/h 19.6 km/h 76 % 0 mm
16:02 -15.2 °C -17.3 °C 34875.8 hPa ENE 12.4 km/h 19.2 km/h 76 % 0 mm
16:07 -15.2 °C -17.3 °C 34875.8 hPa ENE 11.4 km/h 22.5 km/h 76 % 0 mm
16:12 -15.3 °C -17.4 °C 34841.9 hPa ENE 11.9 km/h 22.5 km/h 76 % 0 mm
16:17 -15.4 °C -17.6 °C 34841.9 hPa East 11.9 km/h 20.3 km/h 76 % 0 mm
16:22 -15.4 °C -17.6 °C 34841.9 hPa East 10.9 km/h 22.5 km/h 76 % 0 mm
16:27 -15.5 °C -17.6 °C 34841.9 hPa East 11.4 km/h 22.5 km/h 77 % 0 mm
16:32 -15.6 °C -17.6 °C 34841.9 hPa ENE 11.6 km/h 20.3 km/h 77 % 0 mm
16:37 -15.6 °C -17.7 °C 34841.9 hPa ENE 11.4 km/h 20.9 km/h 77 % 0 mm
16:42 -15.7 °C -17.7 °C 34841.9 hPa ENE 11.6 km/h 20.9 km/h 77 % 0 mm
16:47 -15.7 °C -17.7 °C 34841.9 hPa East 11.1 km/h 16.9 km/h 78 % 0 mm
16:52 -15.8 °C -17.7 °C 34841.9 hPa East 10.1 km/h 15 km/h 78 % 0 mm
16:58 -15.8 °C -17.7 °C 34875.8 hPa East 9 km/h 20.3 km/h 78 % 0 mm
17:03 -15.9 °C -17.8 °C 34875.8 hPa East 9.8 km/h 20.3 km/h 78 % 0 mm
17:08 -15.9 °C -17.8 °C 34875.8 hPa East 10.1 km/h 16.3 km/h 78 % 0 mm
17:13 -15.9 °C -17.8 °C 34875.8 hPa East 9.8 km/h 16.9 km/h 79 % 0 mm
17:18 -15.9 °C -17.8 °C 34875.8 hPa ENE 9.3 km/h 16.9 km/h 79 % 0 mm
17:23 -16 °C -17.8 °C 34875.8 hPa ENE 8.2 km/h 15 km/h 79 % 0 mm
17:26 -16.1 °C -17.9 °C 34909.7 hPa NE 8 km/h 15 km/h 79 % 0 mm
17:31 -16.1 °C -17.9 °C 34909.7 hPa NE 8.2 km/h 15 km/h 79 % 0 mm
17:36 -16.1 °C -17.8 °C 34909.7 hPa ENE 7.6 km/h 14.5 km/h 80 % 0 mm
17:41 -16.2 °C -17.9 °C 34909.7 hPa ENE 6.9 km/h 14.5 km/h 80 % 0 mm
17:46 -16.2 °C -17.9 °C 34909.7 hPa NE 6.4 km/h 9.8 km/h 80 % 0 mm
17:51 -16.2 °C -17.8 °C 34909.7 hPa NE 7.7 km/h 15 km/h 81 % 0 mm
17:56 -16.3 °C -17.9 °C 34909.7 hPa NNE 6.9 km/h 15 km/h 81 % 0 mm
18:01 -16.3 °C -17.9 °C 34909.7 hPa NNE 5 km/h 9.8 km/h 81 % 0 mm
18:06 -16.4 °C -18 °C 34909.7 hPa NNE 5 km/h 8.9 km/h 81 % 0 mm
18:11 -16.4 °C -18.1 °C 34909.7 hPa NNW 5.5 km/h 9.8 km/h 81 % 0 mm
18:16 -16.4 °C -17.9 °C 34909.7 hPa North 6 km/h 10.3 km/h 82 % 0 mm
18:21 -16.5 °C -18 °C 34909.7 hPa NNE 5.6 km/h 10.3 km/h 82 % 0 mm
18:26 -16.6 °C -18.2 °C 34946.9 hPa NNW 3.9 km/h 8.9 km/h 82 % 0 mm
18:31 -16.7 °C -18.2 °C 34946.9 hPa North 3.7 km/h 8.9 km/h 82 % 0 mm
18:36 -16.7 °C -18.2 °C 34946.9 hPa North 3.9 km/h 8 km/h 82 % 0 mm
18:41 -16.8 °C -18.3 °C 34909.7 hPa NW 3.9 km/h 8 km/h 83 % 0 mm
18:46 -16.9 °C -18.3 °C 34909.7 hPa NW 5.5 km/h 10.3 km/h 83 % 0 mm
18:51 -16.9 °C -18.4 °C 34909.7 hPa NW 6.8 km/h 10.3 km/h 83 % 0 mm
18:53 -17 °C -18.4 °C 34909.7 hPa NW 6.4 km/h 10.3 km/h 83 % 0 mm
18:58 -17.1 °C -18.5 °C 34875.8 hPa NW 4.7 km/h 8.9 km/h 83 % 0 mm
19:03 -17.2 °C -18.6 °C 34875.8 hPa NNW 3.7 km/h 12.7 km/h 83 % 0 mm
19:09 -17.2 °C -18.6 °C 34875.8 hPa NW 3.9 km/h 12.7 km/h 83 % 0 mm
19:14 -17.2 °C -18.7 °C 34909.7 hPa WNW 2.9 km/h 7.6 km/h 83 % 0 mm
19:19 -17.2 °C -18.7 °C 34909.7 hPa NW 3.1 km/h 9.8 km/h 83 % 0 mm
19:24 -17.3 °C -18.6 °C 34909.7 hPa NW 5.1 km/h 11.1 km/h 84 % 0 mm
19:28 -17.3 °C -18.6 °C 34909.7 hPa NW 5.6 km/h 11.1 km/h 84 % 0 mm
19:34 -17.3 °C -18.7 °C 34909.7 hPa NW 4.7 km/h 10.3 km/h 84 % 0 mm
19:39 -17.4 °C -18.7 °C 34909.7 hPa NW 5.5 km/h 10.3 km/h 84 % 0 mm
19:44 -17.3 °C -18.7 °C 34909.7 hPa WNW 4.7 km/h 9.8 km/h 84 % 0 mm
19:49 -17.3 °C -18.6 °C 34909.7 hPa NW 3.7 km/h 11.1 km/h 85 % 0 mm
19:53 -17.3 °C -18.6 °C 34909.7 hPa NNW 3.9 km/h 11.1 km/h 85 % 0 mm
19:59 -17.3 °C -18.6 °C 34909.7 hPa NNW 3.1 km/h 9.3 km/h 85 % 0 mm
20:04 -17.3 °C -18.5 °C 34909.7 hPa NW 3.4 km/h 8.9 km/h 85 % 0 mm
20:09 -17.2 °C -18.4 °C 34909.7 hPa WNW 2.1 km/h 8.9 km/h 85 % 0 mm
20:14 -17.2 °C -18.4 °C 34946.9 hPa NNW 1.3 km/h 10.3 km/h 85 % 0 mm
20:18 -17.2 °C -18.3 °C 34946.9 hPa NNW 2.3 km/h 10.3 km/h 86 % 0 mm
20:24 -17.2 °C -18.3 °C 34946.9 hPa NW 5 km/h 9.8 km/h 86 % 0 mm
20:29 -17.1 °C -18.3 °C 34946.9 hPa NW 3.4 km/h 9.8 km/h 86 % 0 mm
20:34 -17.1 °C -18.2 °C 34946.9 hPa North 2.1 km/h 8.9 km/h 86 % 0 mm
20:39 -17.1 °C -18.2 °C 34946.9 hPa NNE 2.3 km/h 8.9 km/h 86 % 0 mm
20:44 -17 °C -18.1 °C 34946.9 hPa NW 1.8 km/h 8 km/h 87 % 0 mm
20:49 -16.9 °C -18 °C 34946.9 hPa WNW 2.3 km/h 8 km/h 87 % 0 mm
20:54 -16.9 °C -17.9 °C 34946.9 hPa NW 3.4 km/h 6.4 km/h 87 % 0 mm
20:59 -16.9 °C -17.9 °C 34946.9 hPa NW 2.6 km/h 6.4 km/h 87 % 0 mm
21:04 -16.9 °C -17.9 °C 34946.9 hPa East 0.8 km/h 4.2 km/h 87 % 0 mm
21:09 -16.8 °C -17.8 °C 34946.9 hPa WNW 0.5 km/h 6.9 km/h 88 % 0 mm
21:14 -16.8 °C -17.8 °C 34946.9 hPa NW 1.3 km/h 6.9 km/h 88 % 0 mm
21:19 -16.8 °C -17.8 °C 34946.9 hPa NNW 0.8 km/h 5.1 km/h 88 % 0 mm
21:24 -16.8 °C -17.8 °C 34946.9 hPa Calm     88 % 0 mm
21:29 -16.8 °C -17.8 °C 34980.8 hPa Calm     88 % 0 mm
21:34 -16.7 °C -17.7 °C 34980.8 hPa Calm     88 % 0 mm
21:39 -16.7 °C -17.7 °C 34980.8 hPa Calm     88 % 0 mm
21:44 -16.7 °C -17.7 °C 34980.8 hPa Calm     88 % 0 mm
21:49 -16.6 °C -17.6 °C 34980.8 hPa Calm     88 % 0 mm
21:54 -16.6 °C -17.5 °C 34980.8 hPa Calm     89 % 0 mm
21:59 -16.6 °C -17.4 °C 34980.8 hPa Calm     89 % 0 mm
22:04 -16.6 °C -17.4 °C 34980.8 hPa Calm     89 % 0 mm
22:09 -16.5 °C -17.4 °C 34980.8 hPa Calm     89 % 0 mm
22:14 -16.5 °C -17.4 °C 34980.8 hPa Calm     89 % 0 mm
22:19 -16.5 °C -17.4 °C 34980.8 hPa Calm   4.2 km/h 89 % 0 mm
22:24 -16.4 °C -17.3 °C 34980.8 hPa Calm   4.2 km/h 89 % 0 mm
22:29 -16.4 °C -17.3 °C 34946.9 hPa East 1.6 km/h 8.9 km/h 89 % 0 mm
22:34 -16.4 °C -17.2 °C 34946.9 hPa ENE 3.1 km/h 8.9 km/h 90 % 0 mm
22:39 -16.3 °C -17.2 °C 34946.9 hPa NE 1.3 km/h 6.4 km/h 90 % 0 mm
22:44 -16.3 °C -17.2 °C 34946.9 hPa Calm   6.4 km/h 90 % 0 mm
22:49 -16.3 °C -17.1 °C 34946.9 hPa East 0.5 km/h 6.4 km/h 90 % 0 mm
22:54 -16.3 °C -17.1 °C 34946.9 hPa East 0.5 km/h 5.6 km/h 90 % 0 mm
22:59 -16.3 °C -17.1 °C 34946.9 hPa Calm   4.2 km/h 90 % 0 mm
23:04 -16.3 °C -17.1 °C 34946.9 hPa East 0.5 km/h 5.1 km/h 90 % 0 mm
23:09 -16.2 °C -17.1 °C 34946.9 hPa East 1.6 km/h 6.4 km/h 90 % 0 mm
23:14 -16.2 °C -16.9 °C 34946.9 hPa East 1.3 km/h 6.4 km/h 91 % 0 mm
23:19 -16.2 °C -16.9 °C 34946.9 hPa East 2.6 km/h 8.9 km/h 91 % 0 mm
23:24 -16.2 °C -16.9 °C 34946.9 hPa ESE 4.3 km/h 8.9 km/h 91 % 0 mm
23:29 -16.2 °C -16.9 °C 34980.8 hPa ESE 4.2 km/h 8 km/h 91 % 0 mm
23:34 -16.2 °C -16.9 °C 34980.8 hPa ESE 4.7 km/h 8 km/h 91 % 0 mm
23:39 -16.1 °C -16.8 °C 34980.8 hPa ESE 6 km/h 8 km/h 91 % 0 mm
23:44 -16.1 °C -16.8 °C 34980.8 hPa East 5.5 km/h 8.9 km/h 91 % 0 mm
23:49 -16.1 °C -16.8 °C 34980.8 hPa ESE 5.5 km/h 10.3 km/h 91 % 0 mm
23:54 -16.1 °C -16.8 °C 34980.8 hPa ESE 5.1 km/h 10.3 km/h 91 % 0 mm
23:59 -16.1 °C -16.8 °C 34946.9 hPa ESE 3.9 km/h 10.3 km/h 91 % 0 mm
Vremenska postaja Senovo
Podatki zbrani iz Weather Underground - 3 mb

Script developed by  Jim McMurry - jmcmurry@mwt.net Adapted for the template by  Wim van der Kuil - Leuven-Template.eu

Vremenski podatki so objavljeni na:

European Weather Network

WeatherCloud

Weather Underground

AWEKAS

HAMweather, WeatherForYou, PWS Weather

MapView

Geostik

Slovenia weather network

Oprema, ki se uporablja:

Vremenski program
Cumulus

Vremenski server
Asus

Cumulus

Asus